createdAt,value
2023-03-06T00:00:26.828Z,96.76
2023-03-06T00:02:55.466Z,97.04
2023-03-06T00:05:24.298Z,96.02
2023-03-06T00:07:53.032Z,96.35
2023-03-06T00:10:25.856Z,93.90
2023-03-06T00:12:55.722Z,92.27
2023-03-06T00:15:26.340Z,93.25
2023-03-06T00:17:55.552Z,92.96
2023-03-06T00:20:25.095Z,91.13
2023-03-06T00:22:53.434Z,93.59
2023-03-06T00:25:23.340Z,93.38
2023-03-06T00:27:53.302Z,92.60
2023-03-06T00:30:23.718Z,91.26
2023-03-06T00:32:53.516Z,91.26
2023-03-06T00:35:22.966Z,91.43
2023-03-06T00:37:52.063Z,90.32
2023-03-06T00:40:22.061Z,89.15
2023-03-06T00:42:50.379Z,88.80
2023-03-06T00:45:20.935Z,88.31
2023-03-06T00:47:49.547Z,88.08
2023-03-06T00:50:18.520Z,87.43
2023-03-06T00:52:47.004Z,86.67
2023-03-06T00:55:16.080Z,85.91
2023-03-06T00:57:44.976Z,86.65
2023-03-06T01:00:14.653Z,86.94
2023-03-06T01:02:44.397Z,86.54
2023-03-06T01:05:15.407Z,86.12
2023-03-06T01:07:43.659Z,86.85
2023-03-06T01:10:13.058Z,86.86
2023-03-06T01:12:41.351Z,85.18
2023-03-06T01:15:10.800Z,88.98
2023-03-06T01:17:39.092Z,90.74
2023-03-06T01:20:10.193Z,92.40
2023-03-06T01:22:38.594Z,97.55
2023-03-06T01:25:07.349Z,100.00
2023-03-06T01:27:35.986Z,100.00
2023-03-06T01:30:05.046Z,98.26
2023-03-06T01:32:34.091Z,100.00
2023-03-06T01:35:03.996Z,100.00
2023-03-06T01:37:33.741Z,100.00
2023-03-06T01:40:02.014Z,100.00
2023-03-06T01:42:32.065Z,100.00
2023-03-06T01:45:02.629Z,100.00
2023-03-06T01:47:31.077Z,100.00
2023-03-06T01:50:01.969Z,100.00
2023-03-06T01:52:34.994Z,100.00
2023-03-06T01:55:06.865Z,100.00
2023-03-06T01:57:39.169Z,100.00
2023-03-06T02:00:11.224Z,100.00
2023-03-06T02:02:40.771Z,100.00
2023-03-06T02:05:09.907Z,100.00
2023-03-06T02:07:41.505Z,100.00
2023-03-06T02:10:11.528Z,100.00
2023-03-06T02:12:43.794Z,99.70
2023-03-06T02:15:13.557Z,100.00
2023-03-06T02:17:43.690Z,99.31
2023-03-06T02:20:17.600Z,98.88
2023-03-06T02:22:53.821Z,97.94
2023-03-06T02:25:34.087Z,100.00
2023-03-06T02:28:03.089Z,100.00
2023-03-06T02:30:32.338Z,100.00
2023-03-06T02:33:01.020Z,100.00
2023-03-06T02:35:31.571Z,96.18
2023-03-06T02:38:04.006Z,95.51
2023-03-06T02:40:33.726Z,97.06
2023-03-06T02:43:02.397Z,94.50
2023-03-06T02:45:35.976Z,97.50
2023-03-06T02:48:04.513Z,98.48
2023-03-06T02:50:33.101Z,99.28
2023-03-06T02:53:01.401Z,99.31
2023-03-06T02:55:29.694Z,100.00
2023-03-06T02:57:59.297Z,100.00
2023-03-06T03:00:28.013Z,98.34
2023-03-06T03:02:56.640Z,98.46
2023-03-06T03:05:25.171Z,98.38
2023-03-06T03:07:53.476Z,100.00
2023-03-06T03:10:21.761Z,97.52
2023-03-06T03:12:50.092Z,100.00
2023-03-06T03:15:20.066Z,98.85
2023-03-06T03:17:48.285Z,100.00
2023-03-06T03:20:18.830Z,94.51
2023-03-06T03:22:49.521Z,91.27
2023-03-06T03:25:18.346Z,90.97
2023-03-06T03:27:46.721Z,90.35
2023-03-06T03:30:15.950Z,93.49
2023-03-06T03:32:45.661Z,92.20
2023-03-06T03:35:14.100Z,89.97
2023-03-06T03:37:42.470Z,89.30
2023-03-06T03:40:11.983Z,90.94
2023-03-06T03:42:40.258Z,90.94
2023-03-06T03:45:09.715Z,89.33
2023-03-06T03:47:38.126Z,95.26
2023-03-06T03:50:08.962Z,100.00
2023-03-06T03:52:37.280Z,100.00
2023-03-06T03:55:06.518Z,100.00
2023-03-06T03:57:34.866Z,100.00
2023-03-06T04:00:03.976Z,100.00
2023-03-06T04:02:32.258Z,100.00
2023-03-06T04:05:00.634Z,100.00
2023-03-06T04:07:30.340Z,100.00
2023-03-06T04:09:58.610Z,100.00
2023-03-06T04:12:26.922Z,100.00
2023-03-06T04:14:55.162Z,100.00
2023-03-06T04:17:23.499Z,100.00
2023-03-06T04:19:51.858Z,100.00
2023-03-06T04:22:20.246Z,99.24
2023-03-06T04:24:50.203Z,97.11
2023-03-06T04:27:18.576Z,97.56
2023-03-06T04:29:46.772Z,100.00
2023-03-06T04:32:15.201Z,100.00
2023-03-06T04:34:43.394Z,100.00
2023-03-06T04:37:19.678Z,100.00
2023-03-06T04:39:49.416Z,100.00
2023-03-06T04:42:18.067Z,99.80
2023-03-06T04:44:46.457Z,99.76
2023-03-06T04:47:14.776Z,100.00
2023-03-06T04:49:43.003Z,100.00
2023-03-06T04:52:11.301Z,100.00
2023-03-06T04:54:39.551Z,100.00
2023-03-06T04:57:09.409Z,100.00
2023-03-06T04:59:39.241Z,100.00
2023-03-06T05:02:07.713Z,100.00
2023-03-06T05:04:36.128Z,100.00
2023-03-06T05:07:04.398Z,100.00
2023-03-06T05:09:32.592Z,100.00
2023-03-06T05:12:00.794Z,100.00
2023-03-06T05:14:32.262Z,100.00
2023-03-06T05:17:00.545Z,100.00
2023-03-06T05:19:28.813Z,100.00
2023-03-06T05:21:57.176Z,100.00
2023-03-06T05:24:25.454Z,100.00
2023-03-06T05:26:53.747Z,100.00
2023-03-06T05:29:22.087Z,100.00
2023-03-06T05:31:51.784Z,100.00
2023-03-06T05:34:20.143Z,100.00
2023-03-06T05:36:48.576Z,100.00
2023-03-06T05:39:16.950Z,100.00
2023-03-06T05:41:45.221Z,100.00
2023-03-06T05:44:13.591Z,100.00
2023-03-06T05:46:41.754Z,100.00
2023-03-06T05:49:11.404Z,100.00
2023-03-06T05:51:39.728Z,100.00
2023-03-06T05:54:08.169Z,100.00
2023-03-06T05:56:36.472Z,100.00
2023-03-06T05:59:04.977Z,100.00
2023-03-06T06:01:33.365Z,100.00
2023-03-06T06:04:01.609Z,100.00
2023-03-06T06:06:31.288Z,100.00
2023-03-06T06:08:59.565Z,100.00
2023-03-06T06:11:27.821Z,100.00
2023-03-06T06:13:56.337Z,100.00
2023-03-06T06:16:24.747Z,100.00
2023-03-06T06:18:53.182Z,100.00
2023-03-06T06:21:21.834Z,100.00
2023-03-06T06:23:51.496Z,100.00
2023-03-06T06:26:19.778Z,100.00
2023-03-06T06:28:48.111Z,100.00
2023-03-06T06:31:16.439Z,100.00
2023-03-06T06:33:45.430Z,100.00
2023-03-06T06:36:18.176Z,100.00
2023-03-06T06:38:46.650Z,100.00
2023-03-06T06:41:42.281Z,100.00
2023-03-06T06:44:08.465Z,100.00
2023-03-06T06:47:20.664Z,100.00
2023-03-06T06:49:26.994Z,100.00
2023-03-06T06:51:55.363Z,100.00
2023-03-06T06:54:26.955Z,100.00
2023-03-06T06:56:56.702Z,100.00
2023-03-06T06:59:24.947Z,100.00
2023-03-06T07:01:53.937Z,100.00
2023-03-06T07:04:22.351Z,100.00
2023-03-06T07:06:50.780Z,100.00
2023-03-06T07:09:20.258Z,100.00
2023-03-06T07:11:48.742Z,100.00
2023-03-06T07:14:18.644Z,98.08
2023-03-06T07:16:46.893Z,96.20
2023-03-06T07:19:15.556Z,95.64
2023-03-06T07:21:43.965Z,93.27
2023-03-06T07:24:12.536Z,91.95
2023-03-06T07:26:40.877Z,88.03
2023-03-06T07:29:09.367Z,85.12
2023-03-06T07:31:39.139Z,84.87
2023-03-06T07:34:07.568Z,82.14
2023-03-06T07:36:36.445Z,79.19
2023-03-06T07:39:05.199Z,75.39
2023-03-06T07:41:33.632Z,72.14
2023-03-06T07:44:02.415Z,70.28
2023-03-06T07:46:30.819Z,70.56
2023-03-06T07:49:00.453Z,66.43
2023-03-06T07:51:28.761Z,64.19
2023-03-06T07:53:57.031Z,62.98
2023-03-06T07:56:25.420Z,61.41
2023-03-06T07:58:55.318Z,61.40
2023-03-06T08:01:24.812Z,61.20
2023-03-06T08:03:53.704Z,60.73
2023-03-06T08:06:25.412Z,59.66
2023-03-06T08:08:55.694Z,63.29
2023-03-06T08:11:26.855Z,63.01
2023-03-06T08:13:55.638Z,61.77
2023-03-06T08:16:25.812Z,61.45
2023-03-06T08:18:54.450Z,59.93
2023-03-06T08:21:25.648Z,58.13
2023-03-06T08:23:54.313Z,55.68
2023-03-06T08:26:24.310Z,54.56
2023-03-06T08:28:53.470Z,54.70
2023-03-06T08:31:27.485Z,53.61
2023-03-06T08:33:58.271Z,53.66
2023-03-06T08:36:28.106Z,52.76
2023-03-06T08:38:56.397Z,51.43
2023-03-06T08:41:24.846Z,51.83
2023-03-06T08:43:53.431Z,51.38
2023-03-06T08:46:23.918Z,48.60
2023-03-06T08:48:52.287Z,48.72
2023-03-06T08:51:21.710Z,48.80
2023-03-06T08:53:52.409Z,46.40
2023-03-06T08:56:22.699Z,47.30
2023-03-06T08:58:51.448Z,45.86
2023-03-06T09:01:21.529Z,44.97
2023-03-06T09:03:49.977Z,46.23
2023-03-06T09:06:18.826Z,43.76
2023-03-06T09:08:47.140Z,43.15
2023-03-06T09:11:17.456Z,42.81
2023-03-06T09:13:45.751Z,42.76
2023-03-06T09:16:14.362Z,41.13
2023-03-06T09:18:42.779Z,39.33
2023-03-06T09:21:11.716Z,39.84
2023-03-06T09:23:40.826Z,37.87
2023-03-06T09:26:09.635Z,36.24
2023-03-06T09:28:40.719Z,36.68
2023-03-06T09:31:10.164Z,33.51
2023-03-06T09:33:38.792Z,31.12
2023-03-06T09:36:08.476Z,31.31
2023-03-06T09:38:36.756Z,32.79
2023-03-06T09:43:40.647Z,32.09
2023-03-06T09:46:19.643Z,30.98
2023-03-06T09:49:00.918Z,31.60
2023-03-06T09:51:35.637Z,30.74
2023-03-06T09:54:13.385Z,31.17
2023-03-06T09:56:47.395Z,32.76
2023-03-06T09:59:21.480Z,31.60
2023-03-06T10:02:00.493Z,34.38
2023-03-06T10:04:39.486Z,30.42
2023-03-06T10:07:13.891Z,30.40
2023-03-06T10:09:48.878Z,31.07
2023-03-06T10:12:26.528Z,30.21
2023-03-06T10:15:06.032Z,31.90
2023-03-06T10:17:37.831Z,31.67
2023-03-06T10:20:20.698Z,30.47
2023-03-06T10:23:03.914Z,29.35
2023-03-06T10:25:39.029Z,28.99
2023-03-06T10:28:16.989Z,28.74
2023-03-06T10:30:53.926Z,31.82
2023-03-06T10:33:30.563Z,31.43
2023-03-06T10:35:58.938Z,29.76
2023-03-06T10:38:29.518Z,27.99
2023-03-06T10:41:08.218Z,29.33
2023-03-06T10:43:37.815Z,30.25
2023-03-06T10:46:09.138Z,30.67
2023-03-06T10:48:40.904Z,31.71
2023-03-06T10:51:20.045Z,28.04
2023-03-06T10:53:55.463Z,29.97
2023-03-06T10:56:32.267Z,28.83
2023-03-06T10:59:08.955Z,31.48
2023-03-06T11:01:39.103Z,29.42
2023-03-06T11:04:23.103Z,28.53
2023-03-06T11:07:08.310Z,27.43
2023-03-06T11:09:36.986Z,28.68
2023-03-06T11:12:24.722Z,29.28
2023-03-06T11:15:21.076Z,28.42
2023-03-06T11:17:57.784Z,28.99
2023-03-06T11:20:31.779Z,28.36
2023-03-06T11:23:12.849Z,28.92
2023-03-06T11:25:45.266Z,29.73
2023-03-06T11:28:21.907Z,29.42
2023-03-06T11:30:53.653Z,30.17
2023-03-06T11:33:29.850Z,27.62
2023-03-06T11:36:05.140Z,27.45
2023-03-06T11:38:41.741Z,29.66
2023-03-06T11:41:20.378Z,28.49
2023-03-06T11:43:56.902Z,26.67
2023-03-06T11:46:29.763Z,27.43
2023-03-06T11:49:06.559Z,29.23
2023-03-06T11:51:39.368Z,28.52
2023-03-06T11:54:10.606Z,26.53
2023-03-06T11:56:51.308Z,28.42
2023-03-06T11:59:52.205Z,27.24
2023-03-06T12:02:34.521Z,25.81
2023-03-06T12:05:22.789Z,27.78
2023-03-06T12:07:57.914Z,27.21
2023-03-06T12:10:32.150Z,26.98
2023-03-06T12:13:35.460Z,27.24
2023-03-06T12:16:24.626Z,26.43
2023-03-06T12:19:05.353Z,28.12
2023-03-06T12:21:46.766Z,28.27
2023-03-06T12:24:45.461Z,27.44
2023-03-06T12:27:25.691Z,25.88
2023-03-06T12:30:22.140Z,27.03
2023-03-06T12:32:57.218Z,26.17
2023-03-06T12:35:43.572Z,28.47
2023-03-06T12:38:37.980Z,29.51
2023-03-06T12:41:18.208Z,28.47
2023-03-06T12:44:12.291Z,28.52
2023-03-06T12:46:45.437Z,30.85
2023-03-06T12:49:31.804Z,30.75
2023-03-06T12:52:02.271Z,31.24
2023-03-06T12:54:36.471Z,32.23
2023-03-06T12:57:08.175Z,31.82
2023-03-06T12:59:44.149Z,32.60
2023-03-06T13:02:29.016Z,34.01
2023-03-06T13:05:13.630Z,32.42
2023-03-06T13:07:58.793Z,32.36
2023-03-06T13:10:30.295Z,32.94
2023-03-06T13:13:01.237Z,33.05
2023-03-06T13:15:40.432Z,33.24
2023-03-06T13:18:44.729Z,31.13
2023-03-06T13:21:45.932Z,31.67
2023-03-06T13:24:21.293Z,30.61
2023-03-06T13:26:55.590Z,30.29
2023-03-06T13:29:59.986Z,30.28
2023-03-06T13:32:33.562Z,30.60
2023-03-06T13:35:02.023Z,31.03
2023-03-06T13:37:56.691Z,31.15
2023-03-06T13:40:33.397Z,32.63
2023-03-06T13:43:25.215Z,32.14
2023-03-06T13:45:53.514Z,31.88
2023-03-06T13:48:45.789Z,32.95
2023-03-06T13:51:25.573Z,33.73
2023-03-06T13:54:13.704Z,33.39
2023-03-06T13:56:59.593Z,32.19
2023-03-06T14:00:11.950Z,32.23
2023-03-06T14:03:00.632Z,32.26
2023-03-06T14:05:42.451Z,31.74
2023-03-06T14:08:15.058Z,32.50
2023-03-06T14:10:45.227Z,33.98
2023-03-06T14:13:20.915Z,32.93
2023-03-06T14:15:52.783Z,34.38
2023-03-06T14:18:24.999Z,36.60
2023-03-06T14:20:58.370Z,35.64
2023-03-06T14:23:32.378Z,34.80
2023-03-06T14:26:06.971Z,34.81
2023-03-06T14:28:37.225Z,35.13
2023-03-06T14:31:07.617Z,35.70
2023-03-06T14:33:44.240Z,36.05
2023-03-06T14:36:16.471Z,36.88
2023-03-06T14:38:49.334Z,37.60
2023-03-06T14:41:25.808Z,37.18
2023-03-06T14:43:54.654Z,37.85
2023-03-06T14:46:24.808Z,37.92
2023-03-06T14:48:53.100Z,37.25
2023-03-06T14:51:25.419Z,36.41
2023-03-06T14:53:55.813Z,36.18
2023-03-06T14:56:27.015Z,35.94
2023-03-06T14:58:58.720Z,35.22
2023-03-06T15:01:35.421Z,34.57
2023-03-06T15:04:08.310Z,34.79
2023-03-06T15:06:42.784Z,36.24
2023-03-06T15:09:17.805Z,36.96
2023-03-06T15:11:57.766Z,36.32
2023-03-06T15:14:33.206Z,37.40
2023-03-06T15:17:23.964Z,37.15
2023-03-06T15:19:54.748Z,37.76
2023-03-06T15:22:32.795Z,38.22
2023-03-06T15:25:27.825Z,37.97
2023-03-06T15:27:57.669Z,37.60
2023-03-06T15:30:28.953Z,37.87
2023-03-06T15:33:26.451Z,38.56
2023-03-06T15:35:57.519Z,39.70
2023-03-06T15:38:32.963Z,39.89
2023-03-06T15:41:02.404Z,40.49
2023-03-06T15:43:36.234Z,40.47
2023-03-06T15:46:06.933Z,40.10
2023-03-06T15:48:36.691Z,39.91
2023-03-06T15:51:06.057Z,40.23
2023-03-06T15:53:34.348Z,41.29
2023-03-06T15:56:05.525Z,42.11
2023-03-06T15:58:35.525Z,41.69
2023-03-06T16:01:04.191Z,41.74
2023-03-06T16:03:32.549Z,41.20
2023-03-06T16:06:02.292Z,40.03
2023-03-06T16:08:30.597Z,39.99
2023-03-06T16:10:59.496Z,41.07
2023-03-06T16:13:29.669Z,41.29
2023-03-06T16:15:57.874Z,43.05
2023-03-06T16:18:26.235Z,42.11
2023-03-06T16:20:54.522Z,42.68
2023-03-06T16:23:24.234Z,42.42
2023-03-06T16:25:52.536Z,42.92
2023-03-06T16:28:20.814Z,44.00
2023-03-06T16:30:49.211Z,45.10
2023-03-06T16:33:17.908Z,45.08
2023-03-06T16:35:47.402Z,44.87
2023-03-06T16:38:16.869Z,44.48
2023-03-06T16:40:46.591Z,44.97
2023-03-06T16:43:16.293Z,46.24
2023-03-06T16:45:45.211Z,45.71
2023-03-06T16:48:18.146Z,45.84
2023-03-06T16:50:47.028Z,46.16
2023-03-06T16:53:16.342Z,46.47
2023-03-06T16:55:44.759Z,47.40
2023-03-06T16:58:14.841Z,49.20
2023-03-06T17:00:43.229Z,50.65
2023-03-06T17:03:11.488Z,51.54
2023-03-06T17:05:40.092Z,51.85
2023-03-06T17:08:08.539Z,50.94
2023-03-06T17:10:36.844Z,50.97
2023-03-06T17:13:05.284Z,52.80
2023-03-06T17:15:35.042Z,53.97
2023-03-06T17:18:03.395Z,53.73
2023-03-06T17:20:31.763Z,52.57
2023-03-06T17:23:00.210Z,52.79
2023-03-06T17:25:28.719Z,53.85
2023-03-06T17:27:57.119Z,54.27
2023-03-06T17:30:25.421Z,54.17
2023-03-06T17:32:55.092Z,53.98
2023-03-06T17:35:23.379Z,54.80
2023-03-06T17:37:52.771Z,56.93
2023-03-06T17:40:21.341Z,56.05
2023-03-06T17:42:50.753Z,56.49
2023-03-06T17:45:19.206Z,57.20
2023-03-06T17:47:49.049Z,56.10
2023-03-06T17:50:19.145Z,56.61
2023-03-06T17:52:47.366Z,55.78
2023-03-06T17:55:15.719Z,56.19
2023-03-06T17:57:44.092Z,56.03
2023-03-06T18:00:13.308Z,56.00
2023-03-06T18:02:41.560Z,56.03
2023-03-06T18:05:10.872Z,55.36
2023-03-06T18:07:40.552Z,55.59
2023-03-06T18:10:09.344Z,55.18
2023-03-06T18:12:37.548Z,55.55
2023-03-06T18:15:06.479Z,56.48
2023-03-06T18:17:34.794Z,56.96
2023-03-06T18:20:02.968Z,57.47
2023-03-06T18:22:31.275Z,57.29
2023-03-06T18:25:01.151Z,56.97
2023-03-06T18:27:33.805Z,56.63
2023-03-06T18:30:02.727Z,55.78
2023-03-06T18:32:31.177Z,56.27
2023-03-06T18:34:59.516Z,55.43
2023-03-06T18:37:27.922Z,56.67
2023-03-06T18:39:56.728Z,56.83
2023-03-06T18:42:26.416Z,56.42
2023-03-06T18:44:54.993Z,56.28
2023-03-06T18:47:23.349Z,55.67
2023-03-06T18:49:51.923Z,56.51
2023-03-06T18:52:20.476Z,54.93
2023-03-06T18:54:50.639Z,56.17
2023-03-06T18:57:19.152Z,55.43
2023-03-06T18:59:48.891Z,56.54
2023-03-06T19:02:17.260Z,56.67
2023-03-06T19:04:45.495Z,56.57
2023-03-06T19:07:14.736Z,57.23
2023-03-06T19:09:44.524Z,59.06
2023-03-06T19:12:13.058Z,59.62
2023-03-06T19:14:41.382Z,58.54
2023-03-06T19:17:11.156Z,59.16
2023-03-06T19:19:40.016Z,58.55
2023-03-06T19:22:08.278Z,60.25
2023-03-06T19:24:36.582Z,60.06
2023-03-06T19:27:05.012Z,58.09
2023-03-06T19:29:33.606Z,57.91
2023-03-06T19:32:02.065Z,57.41
2023-03-06T19:34:31.865Z,57.74
2023-03-06T19:37:00.162Z,56.86
2023-03-06T19:39:28.568Z,56.35
2023-03-06T19:41:56.970Z,56.28
2023-03-06T19:44:25.669Z,56.25
2023-03-06T19:46:54.009Z,55.70
2023-03-06T19:49:22.397Z,55.71
2023-03-06T19:51:52.225Z,56.65
2023-03-06T19:54:23.525Z,56.27
2023-03-06T19:56:51.982Z,55.46
2023-03-06T19:59:20.392Z,54.72
2023-03-06T20:01:48.666Z,55.83
2023-03-06T20:04:17.236Z,56.39
2023-03-06T20:06:46.984Z,56.65
2023-03-06T20:09:16.797Z,54.68
2023-03-06T20:11:45.106Z,56.17
2023-03-06T20:14:14.550Z,55.33
2023-03-06T20:16:42.859Z,56.17
2023-03-06T20:19:12.501Z,56.19
2023-03-06T20:21:40.919Z,56.07
2023-03-06T20:24:10.498Z,57.45
2023-03-06T20:26:40.150Z,57.92
2023-03-06T20:29:08.531Z,57.38
2023-03-06T20:31:37.166Z,58.75
2023-03-06T20:34:06.294Z,57.67
2023-03-06T20:36:36.376Z,57.74
2023-03-06T20:39:07.672Z,57.36
2023-03-06T20:41:36.315Z,57.30
2023-03-06T20:44:08.136Z,56.67
2023-03-06T20:46:37.042Z,56.99
2023-03-06T20:49:05.961Z,57.39
2023-03-06T20:51:37.682Z,55.59
2023-03-06T20:54:07.824Z,55.52
2023-03-06T20:56:55.344Z,54.62
2023-03-06T20:59:24.989Z,56.44
2023-03-06T21:01:53.368Z,54.84
2023-03-06T21:04:21.684Z,56.88
2023-03-06T21:06:50.068Z,56.35
2023-03-06T21:09:18.684Z,54.74
2023-03-06T21:11:47.365Z,56.53
2023-03-06T21:14:16.142Z,56.82
2023-03-06T21:16:46.042Z,56.72
2023-03-06T21:19:14.401Z,58.28
2023-03-06T21:21:42.734Z,59.19
2023-03-06T21:24:11.280Z,59.05
2023-03-06T21:26:39.812Z,58.20
2023-03-06T21:29:08.175Z,56.68
2023-03-06T21:31:36.930Z,58.95
2023-03-06T21:34:11.621Z,60.52
2023-03-06T21:36:39.912Z,60.90
2023-03-06T21:39:08.146Z,60.62
2023-03-06T21:41:38.252Z,60.73
2023-03-06T21:44:07.481Z,59.09
2023-03-06T21:46:36.491Z,60.42
2023-03-06T21:49:06.140Z,60.51
2023-03-06T21:51:35.945Z,59.87
2023-03-06T21:54:04.530Z,59.05
2023-03-06T21:56:33.749Z,60.83
2023-03-06T21:59:02.680Z,60.67
2023-03-06T22:01:31.748Z,61.05
2023-03-06T22:04:01.226Z,60.23
2023-03-06T22:06:31.240Z,60.81
2023-03-06T22:09:01.734Z,61.22
2023-03-06T22:11:31.621Z,61.67
2023-03-06T22:14:00.298Z,60.16
2023-03-06T22:16:29.113Z,59.79
2023-03-06T22:18:57.923Z,59.63
2023-03-06T22:21:26.725Z,58.54
2023-03-06T22:23:57.480Z,58.04
2023-03-06T22:26:28.091Z,58.39
2023-03-06T22:28:56.803Z,60.86
2023-03-06T22:31:26.917Z,60.47
2023-03-06T22:33:56.862Z,61.41
2023-03-06T22:36:25.807Z,60.97
2023-03-06T22:38:56.269Z,60.37
2023-03-06T22:41:28.000Z,60.73
2023-03-06T22:43:57.153Z,60.70
2023-03-06T22:46:25.865Z,61.72
2023-03-06T22:48:56.564Z,61.88
2023-03-06T22:51:25.466Z,60.85
2023-03-06T22:53:54.212Z,62.53
2023-03-06T22:56:23.388Z,62.45
2023-03-06T22:58:53.088Z,62.88
2023-03-06T23:01:23.441Z,63.69
2023-03-06T23:03:54.423Z,65.16
2023-03-06T23:06:25.003Z,65.24
2023-03-06T23:08:58.136Z,64.72
2023-03-06T23:11:27.990Z,63.69
2023-03-06T23:13:58.377Z,63.33
2023-03-06T23:16:28.244Z,63.25
2023-03-06T23:18:56.544Z,61.78
2023-03-06T23:21:25.650Z,62.93
2023-03-06T23:23:55.289Z,63.65
2023-03-06T23:26:25.513Z,64.67
2023-03-06T23:28:54.892Z,65.71
2023-03-06T23:31:28.801Z,65.77
2023-03-06T23:33:58.955Z,63.96
2023-03-06T23:36:27.866Z,63.23
2023-03-06T23:38:56.468Z,63.76
2023-03-06T23:41:25.168Z,65.04
2023-03-06T23:43:55.241Z,66.00
2023-03-06T23:46:25.151Z,67.65
2023-03-06T23:48:53.605Z,67.38
2023-03-06T23:51:23.633Z,68.90
2023-03-06T23:53:57.027Z,68.69
2023-03-06T23:56:25.653Z,69.91
2023-03-06T23:58:54.529Z,71.12
